sensor_id;sensor_type;location;lat;lon;timestamp;P1;durP1;ratioP1;P2;durP2;ratioP2
6505;SDS011;3286;49.858;8.768;2024-03-23T00:55:17;8.67;;;5.47;;
6505;SDS011;3286;49.858;8.768;2024-03-23T00:57:43;6.93;;;5.07;;
6505;SDS011;3286;49.858;8.768;2024-03-23T01:00:10;7.13;;;5.23;;
6505;SDS011;3286;49.858;8.768;2024-03-23T01:02:37;8.23;;;6.13;;
6505;SDS011;3286;49.858;8.768;2024-03-23T01:05:04;10.83;;;6.03;;
6505;SDS011;3286;49.858;8.768;2024-03-23T01:07:30;9.07;;;6.00;;
6505;SDS011;3286;49.858;8.768;2024-03-23T01:09:58;11.97;;;6.33;;
6505;SDS011;3286;49.858;8.768;2024-03-23T01:12:24;11.00;;;6.73;;
6505;SDS011;3286;49.858;8.768;2024-03-23T01:14:50;9.43;;;6.27;;
6505;SDS011;3286;49.858;8.768;2024-03-23T01:17:16;7.93;;;5.30;;
6505;SDS011;3286;49.858;8.768;2024-03-23T01:19:43;8.60;;;5.50;;
6505;SDS011;3286;49.858;8.768;2024-03-23T01:22:09;7.87;;;5.87;;
6505;SDS011;3286;49.858;8.768;2024-03-23T01:27:41;7.40;;;5.60;;
6505;SDS011;3286;49.858;8.768;2024-03-23T01:30:08;7.10;;;5.80;;
6505;SDS011;3286;49.858;8.768;2024-03-23T01:32:34;12.27;;;6.07;;
6505;SDS011;3286;49.858;8.768;2024-03-23T01:35:01;8.73;;;5.60;;
6505;SDS011;3286;49.858;8.768;2024-03-23T01:37:26;9.33;;;6.30;;
6505;SDS011;3286;49.858;8.768;2024-03-23T01:39:53;13.50;;;6.17;;
6505;SDS011;3286;49.858;8.768;2024-03-23T01:42:19;9.60;;;6.13;;
6505;SDS011;3286;49.858;8.768;2024-03-23T01:44:47;10.50;;;6.57;;
6505;SDS011;3286;49.858;8.768;2024-03-23T01:47:13;9.57;;;6.20;;
6505;SDS011;3286;49.858;8.768;2024-03-23T01:49:39;11.47;;;5.90;;
6505;SDS011;3286;49.858;8.768;2024-03-23T01:52:06;9.33;;;6.23;;
6505;SDS011;3286;49.858;8.768;2024-03-23T01:54:33;8.67;;;6.00;;
6505;SDS011;3286;49.858;8.768;2024-03-23T01:56:59;10.83;;;6.33;;
6505;SDS011;3286;49.858;8.768;2024-03-23T01:59:26;8.27;;;5.93;;
6505;SDS011;3286;49.858;8.768;2024-03-23T02:01:53;10.03;;;7.03;;
6505;SDS011;3286;49.858;8.768;2024-03-23T02:04:21;9.57;;;6.23;;
6505;SDS011;3286;49.858;8.768;2024-03-23T02:06:47;8.03;;;6.47;;
6505;SDS011;3286;49.858;8.768;2024-03-23T02:09:14;10.73;;;6.97;;
6505;SDS011;3286;49.858;8.768;2024-03-23T02:11:40;9.63;;;6.43;;
6505;SDS011;3286;49.858;8.768;2024-03-23T02:14:07;10.77;;;6.57;;
6505;SDS011;3286;49.858;8.768;2024-03-23T02:16:33;11.00;;;7.80;;
6505;SDS011;3286;49.858;8.768;2024-03-23T02:19:03;14.17;;;7.30;;
6505;SDS011;3286;49.858;8.768;2024-03-23T02:21:28;11.30;;;6.87;;
6505;SDS011;3286;49.858;8.768;2024-03-23T02:23:59;14.57;;;7.20;;
6505;SDS011;3286;49.858;8.768;2024-03-23T02:26:25;15.20;;;8.17;;
6505;SDS011;3286;49.858;8.768;2024-03-23T02:28:52;13.67;;;8.17;;
6505;SDS011;3286;49.858;8.768;2024-03-23T02:31:17;9.93;;;7.47;;
6505;SDS011;3286;49.858;8.768;2024-03-23T02:33:44;13.03;;;7.63;;
6505;SDS011;3286;49.858;8.768;2024-03-23T02:36:10;12.23;;;7.73;;
6505;SDS011;3286;49.858;8.768;2024-03-23T02:38:36;11.63;;;7.23;;
6505;SDS011;3286;49.858;8.768;2024-03-23T02:41:04;13.80;;;7.70;;
6505;SDS011;3286;49.858;8.768;2024-03-23T02:43:31;13.53;;;8.17;;
6505;SDS011;3286;49.858;8.768;2024-03-23T02:45:57;12.90;;;7.17;;
6505;SDS011;3286;49.858;8.768;2024-03-23T02:48:23;12.33;;;8.13;;
6505;SDS011;3286;49.858;8.768;2024-03-23T02:50:49;11.43;;;7.60;;
6505;SDS011;3286;49.858;8.768;2024-03-23T02:53:16;14.33;;;8.20;;
6505;SDS011;3286;49.858;8.768;2024-03-23T02:55:43;13.03;;;7.90;;
6505;SDS011;3286;49.858;8.768;2024-03-23T02:58:13;13.47;;;8.13;;
6505;SDS011;3286;49.858;8.768;2024-03-23T03:00:39;13.90;;;7.87;;
6505;SDS011;3286;49.858;8.768;2024-03-23T03:03:06;13.13;;;7.83;;
6505;SDS011;3286;49.858;8.768;2024-03-23T03:05:32;11.27;;;8.07;;
6505;SDS011;3286;49.858;8.768;2024-03-23T03:07:59;13.53;;;8.17;;
6505;SDS011;3286;49.858;8.768;2024-03-23T03:10:25;15.90;;;8.70;;
6505;SDS011;3286;49.858;8.768;2024-03-23T03:12:51;14.27;;;8.47;;
6505;SDS011;3286;49.858;8.768;2024-03-23T03:15:19;14.50;;;8.27;;
6505;SDS011;3286;49.858;8.768;2024-03-23T03:17:45;9.40;;;7.73;;
6505;SDS011;3286;49.858;8.768;2024-03-23T03:20:11;10.87;;;8.23;;
6505;SDS011;3286;49.858;8.768;2024-03-23T03:22:40;14.07;;;7.90;;
6505;SDS011;3286;49.858;8.768;2024-03-23T03:25:06;13.83;;;8.47;;
6505;SDS011;3286;49.858;8.768;2024-03-23T03:27:33;13.60;;;8.63;;
6505;SDS011;3286;49.858;8.768;2024-03-23T03:29:59;15.77;;;9.67;;
6505;SDS011;3286;49.858;8.768;2024-03-23T03:32:29;12.50;;;9.07;;
6505;SDS011;3286;49.858;8.768;2024-03-23T03:34:55;13.27;;;8.93;;
6505;SDS011;3286;49.858;8.768;2024-03-23T03:37:21;15.47;;;8.77;;
6505;SDS011;3286;49.858;8.768;2024-03-23T03:39:47;13.13;;;8.60;;
6505;SDS011;3286;49.858;8.768;2024-03-23T03:42:14;15.90;;;10.47;;
6505;SDS011;3286;49.858;8.768;2024-03-23T03:44:40;15.93;;;9.30;;
6505;SDS011;3286;49.858;8.768;2024-03-23T03:47:07;14.40;;;8.70;;
6505;SDS011;3286;49.858;8.768;2024-03-23T03:49:34;16.03;;;9.27;;
6505;SDS011;3286;49.858;8.768;2024-03-23T03:52:01;15.73;;;9.33;;
6505;SDS011;3286;49.858;8.768;2024-03-23T03:54:27;14.07;;;9.10;;
6505;SDS011;3286;49.858;8.768;2024-03-23T03:56:54;18.03;;;8.97;;
6505;SDS011;3286;49.858;8.768;2024-03-23T03:59:19;12.80;;;8.90;;
6505;SDS011;3286;49.858;8.768;2024-03-23T04:01:47;16.07;;;9.10;;
6505;SDS011;3286;49.858;8.768;2024-03-23T04:04:12;14.37;;;9.07;;
6505;SDS011;3286;49.858;8.768;2024-03-23T04:06:43;11.70;;;8.23;;
6505;SDS011;3286;49.858;8.768;2024-03-23T04:09:09;13.57;;;9.00;;
6505;SDS011;3286;49.858;8.768;2024-03-23T04:11:36;18.03;;;9.50;;
6505;SDS011;3286;49.858;8.768;2024-03-23T04:14:01;12.63;;;8.97;;
6505;SDS011;3286;49.858;8.768;2024-03-23T04:16:28;14.67;;;9.27;;
6505;SDS011;3286;49.858;8.768;2024-03-23T04:18:55;13.83;;;8.60;;
6505;SDS011;3286;49.858;8.768;2024-03-23T04:21:22;14.40;;;9.30;;
6505;SDS011;3286;49.858;8.768;2024-03-23T04:23:49;13.13;;;9.17;;
6505;SDS011;3286;49.858;8.768;2024-03-23T04:26:16;14.20;;;9.10;;
6505;SDS011;3286;49.858;8.768;2024-03-23T04:28:42;18.57;;;9.10;;
6505;SDS011;3286;49.858;8.768;2024-03-23T04:31:09;16.10;;;9.20;;
6505;SDS011;3286;49.858;8.768;2024-03-23T04:33:35;16.53;;;9.10;;
6505;SDS011;3286;49.858;8.768;2024-03-23T04:36:02;18.50;;;10.90;;
6505;SDS011;3286;49.858;8.768;2024-03-23T04:38:28;19.63;;;9.70;;
6505;SDS011;3286;49.858;8.768;2024-03-23T04:40:57;16.70;;;9.53;;
6505;SDS011;3286;49.858;8.768;2024-03-23T04:43:24;16.97;;;9.40;;
6505;SDS011;3286;49.858;8.768;2024-03-23T04:45:51;19.87;;;10.27;;
6505;SDS011;3286;49.858;8.768;2024-03-23T04:48:19;21.67;;;10.20;;
6505;SDS011;3286;49.858;8.768;2024-03-23T04:50:46;17.57;;;9.63;;
6505;SDS011;3286;49.858;8.768;2024-03-23T04:53:14;14.63;;;8.63;;
6505;SDS011;3286;49.858;8.768;2024-03-23T04:55:41;14.73;;;9.23;;
6505;SDS011;3286;49.858;8.768;2024-03-23T04:58:09;12.93;;;7.73;;
6505;SDS011;3286;49.858;8.768;2024-03-23T05:00:34;11.57;;;6.47;;
6505;SDS011;3286;49.858;8.768;2024-03-23T05:03:01;13.17;;;7.10;;
6505;SDS011;3286;49.858;8.768;2024-03-23T05:05:29;9.17;;;6.17;;
6505;SDS011;3286;49.858;8.768;2024-03-23T05:07:55;10.63;;;6.10;;
6505;SDS011;3286;49.858;8.768;2024-03-23T05:10:21;11.47;;;6.07;;
6505;SDS011;3286;49.858;8.768;2024-03-23T05:12:47;9.40;;;5.80;;
6505;SDS011;3286;49.858;8.768;2024-03-23T05:15:15;9.90;;;6.20;;
6505;SDS011;3286;49.858;8.768;2024-03-23T05:17:41;5.10;;;3.33;;
6505;SDS011;3286;49.858;8.768;2024-03-23T05:20:08;4.60;;;2.70;;
6505;SDS011;3286;49.858;8.768;2024-03-23T05:22:35;3.63;;;2.40;;
6505;SDS011;3286;49.858;8.768;2024-03-23T05:25:02;4.13;;;2.23;;
6505;SDS011;3286;49.858;8.768;2024-03-23T05:27:30;3.93;;;1.97;;
6505;SDS011;3286;49.858;8.768;2024-03-23T05:29:57;3.13;;;2.23;;
6505;SDS011;3286;49.858;8.768;2024-03-23T05:32:24;5.77;;;2.93;;
6505;SDS011;3286;49.858;8.768;2024-03-23T05:34:51;4.00;;;2.43;;
6505;SDS011;3286;49.858;8.768;2024-03-23T05:37:21;3.83;;;2.13;;
6505;SDS011;3286;49.858;8.768;2024-03-23T05:39:47;3.63;;;1.80;;
6505;SDS011;3286;49.858;8.768;2024-03-23T05:42:14;3.17;;;1.93;;
6505;SDS011;3286;49.858;8.768;2024-03-23T05:44:42;2.87;;;1.70;;
6505;SDS011;3286;49.858;8.768;2024-03-23T05:47:09;1.70;;;1.57;;
6505;SDS011;3286;49.858;8.768;2024-03-23T05:49:37;3.30;;;1.50;;
6505;SDS011;3286;49.858;8.768;2024-03-23T05:52:03;1.67;;;1.57;;
6505;SDS011;3286;49.858;8.768;2024-03-23T05:54:30;1.77;;;1.60;;
6505;SDS011;3286;49.858;8.768;2024-03-23T05:56:56;3.17;;;1.73;;
6505;SDS011;3286;49.858;8.768;2024-03-23T05:59:24;2.27;;;1.80;;
6505;SDS011;3286;49.858;8.768;2024-03-23T06:01:50;1.90;;;1.60;;
6505;SDS011;3286;49.858;8.768;2024-03-23T06:04:17;2.40;;;1.90;;
6505;SDS011;3286;49.858;8.768;2024-03-23T06:06:44;1.70;;;1.60;;
6505;SDS011;3286;49.858;8.768;2024-03-23T06:09:11;2.10;;;1.83;;
6505;SDS011;3286;49.858;8.768;2024-03-23T06:11:37;4.03;;;1.70;;
6505;SDS011;3286;49.858;8.768;2024-03-23T06:14:04;3.30;;;1.90;;
6505;SDS011;3286;49.858;8.768;2024-03-23T06:16:31;3.77;;;2.30;;
6505;SDS011;3286;49.858;8.768;2024-03-23T06:18:57;2.67;;;2.40;;
6505;SDS011;3286;49.858;8.768;2024-03-23T06:21:24;2.27;;;1.93;;
6505;SDS011;3286;49.858;8.768;2024-03-23T06:23:52;3.10;;;2.60;;
6505;SDS011;3286;49.858;8.768;2024-03-23T06:26:18;5.90;;;2.80;;
6505;SDS011;3286;49.858;8.768;2024-03-23T06:28:45;3.07;;;2.60;;
6505;SDS011;3286;49.858;8.768;2024-03-23T06:31:11;3.53;;;2.57;;
6505;SDS011;3286;49.858;8.768;2024-03-23T06:33:39;3.50;;;2.70;;
6505;SDS011;3286;49.858;8.768;2024-03-23T06:36:07;11.40;;;3.73;;
6505;SDS011;3286;49.858;8.768;2024-03-23T06:38:35;2.67;;;2.40;;
6505;SDS011;3286;49.858;8.768;2024-03-23T06:41:03;1.40;;;1.30;;
6505;SDS011;3286;49.858;8.768;2024-03-23T06:43:33;1.20;;;1.10;;
6505;SDS011;3286;49.858;8.768;2024-03-23T06:45:59;1.17;;;0.80;;
6505;SDS011;3286;49.858;8.768;2024-03-23T06:48:26;1.20;;;1.00;;
6505;SDS011;3286;49.858;8.768;2024-03-23T06:50:55;1.03;;;0.80;;
6505;SDS011;3286;49.858;8.768;2024-03-23T06:53:22;1.47;;;1.10;;
6505;SDS011;3286;49.858;8.768;2024-03-23T06:55:49;1.00;;;1.00;;
6505;SDS011;3286;49.858;8.768;2024-03-23T06:58:18;1.17;;;0.97;;
6505;SDS011;3286;49.858;8.768;2024-03-23T07:00:44;1.47;;;1.23;;
6505;SDS011;3286;49.858;8.768;2024-03-23T07:03:11;0.93;;;0.90;;
6505;SDS011;3286;49.858;8.768;2024-03-23T07:05:37;1.20;;;1.10;;
6505;SDS011;3286;49.858;8.768;2024-03-23T07:08:04;1.30;;;1.20;;
6505;SDS011;3286;49.858;8.768;2024-03-23T07:10:30;1.23;;;1.13;;
6505;SDS011;3286;49.858;8.768;2024-03-23T07:12:57;0.80;;;0.60;;
6505;SDS011;3286;49.858;8.768;2024-03-23T07:15:24;1.20;;;0.90;;
6505;SDS011;3286;49.858;8.768;2024-03-23T07:17:51;0.60;;;0.60;;
6505;SDS011;3286;49.858;8.768;2024-03-23T07:20:17;0.40;;;0.40;;
6505;SDS011;3286;49.858;8.768;2024-03-23T07:22:45;3.07;;;1.00;;
6505;SDS011;3286;49.858;8.768;2024-03-23T07:25:11;1.23;;;0.87;;
6505;SDS011;3286;49.858;8.768;2024-03-23T07:27:37;2.47;;;0.90;;
6505;SDS011;3286;49.858;8.768;2024-03-23T07:30:03;0.73;;;0.70;;
6505;SDS011;3286;49.858;8.768;2024-03-23T07:32:32;0.60;;;0.60;;
6505;SDS011;3286;49.858;8.768;2024-03-23T07:34:58;1.90;;;0.90;;
6505;SDS011;3286;49.858;8.768;2024-03-23T07:37:25;2.20;;;0.93;;
6505;SDS011;3286;49.858;8.768;2024-03-23T07:39:51;1.87;;;1.33;;
6505;SDS011;3286;49.858;8.768;2024-03-23T07:42:17;1.07;;;0.90;;
6505;SDS011;3286;49.858;8.768;2024-03-23T07:44:43;2.33;;;1.13;;
6505;SDS011;3286;49.858;8.768;2024-03-23T07:47:11;3.23;;;0.93;;
6505;SDS011;3286;49.858;8.768;2024-03-23T07:49:38;3.33;;;1.10;;
6505;SDS011;3286;49.858;8.768;2024-03-23T07:52:05;2.10;;;1.30;;
6505;SDS011;3286;49.858;8.768;2024-03-23T07:54:33;2.03;;;1.37;;
6505;SDS011;3286;49.858;8.768;2024-03-23T07:57:00;6.07;;;1.80;;
6505;SDS011;3286;49.858;8.768;2024-03-23T07:59:25;4.17;;;1.40;;
6505;SDS011;3286;49.858;8.768;2024-03-23T08:01:53;5.90;;;1.67;;
6505;SDS011;3286;49.858;8.768;2024-03-23T08:04:20;3.47;;;1.30;;
6505;SDS011;3286;49.858;8.768;2024-03-23T08:06:48;5.93;;;1.73;;
6505;SDS011;3286;49.858;8.768;2024-03-23T08:09:14;4.30;;;1.27;;
6505;SDS011;3286;49.858;8.768;2024-03-23T08:11:40;3.77;;;1.23;;
6505;SDS011;3286;49.858;8.768;2024-03-23T08:14:09;5.57;;;1.50;;
6505;SDS011;3286;49.858;8.768;2024-03-23T08:16:35;4.33;;;1.37;;
6505;SDS011;3286;49.858;8.768;2024-03-23T08:19:01;3.13;;;1.37;;
6505;SDS011;3286;49.858;8.768;2024-03-23T08:21:29;2.27;;;1.27;;
6505;SDS011;3286;49.858;8.768;2024-03-23T08:23:56;2.83;;;1.33;;
6505;SDS011;3286;49.858;8.768;2024-03-23T08:26:22;3.07;;;1.50;;
6505;SDS011;3286;49.858;8.768;2024-03-23T08:28:48;4.00;;;1.70;;
6505;SDS011;3286;49.858;8.768;2024-03-23T08:31:15;4.17;;;1.90;;
6505;SDS011;3286;49.858;8.768;2024-03-23T08:33:41;5.07;;;1.93;;
6505;SDS011;3286;49.858;8.768;2024-03-23T08:36:09;2.93;;;2.17;;
6505;SDS011;3286;49.858;8.768;2024-03-23T08:38:37;3.03;;;1.80;;
6505;SDS011;3286;49.858;8.768;2024-03-23T08:41:06;3.33;;;2.23;;
6505;SDS011;3286;49.858;8.768;2024-03-23T08:43:35;3.77;;;2.10;;
6505;SDS011;3286;49.858;8.768;2024-03-23T08:46:05;5.87;;;2.00;;
6505;SDS011;3286;49.858;8.768;2024-03-23T08:48:32;3.53;;;2.40;;
6505;SDS011;3286;49.858;8.768;2024-03-23T08:50:59;5.97;;;2.67;;
6505;SDS011;3286;49.858;8.768;2024-03-23T08:53:27;5.47;;;2.13;;
6505;SDS011;3286;49.858;8.768;2024-03-23T08:55:54;3.63;;;2.40;;
6505;SDS011;3286;49.858;8.768;2024-03-23T08:58:24;5.07;;;2.70;;
6505;SDS011;3286;49.858;8.768;2024-03-23T09:00:52;3.63;;;2.40;;
6505;SDS011;3286;49.858;8.768;2024-03-23T09:03:21;7.73;;;2.77;;
6505;SDS011;3286;49.858;8.768;2024-03-23T09:05:48;5.20;;;2.40;;
6505;SDS011;3286;49.858;8.768;2024-03-23T09:08:14;2.63;;;2.23;;
6505;SDS011;3286;49.858;8.768;2024-03-23T09:10:41;4.83;;;2.23;;
6505;SDS011;3286;49.858;8.768;2024-03-23T09:13:08;5.63;;;2.40;;
6505;SDS011;3286;49.858;8.768;2024-03-23T09:15:36;8.23;;;2.57;;
6505;SDS011;3286;49.858;8.768;2024-03-23T09:18:03;7.00;;;2.53;;
6505;SDS011;3286;49.858;8.768;2024-03-23T09:20:32;8.43;;;2.40;;
6505;SDS011;3286;49.858;8.768;2024-03-23T09:22:58;10.77;;;2.90;;
6505;SDS011;3286;49.858;8.768;2024-03-23T09:25:25;5.37;;;2.40;;
6505;SDS011;3286;49.858;8.768;2024-03-23T09:27:51;9.93;;;2.87;;
6505;SDS011;3286;49.858;8.768;2024-03-23T09:30:18;7.10;;;3.00;;
6505;SDS011;3286;49.858;8.768;2024-03-23T09:32:46;7.30;;;2.70;;
6505;SDS011;3286;49.858;8.768;2024-03-23T09:35:14;8.20;;;2.93;;
6505;SDS011;3286;49.858;8.768;2024-03-23T09:37:40;9.13;;;2.83;;
6505;SDS011;3286;49.858;8.768;2024-03-23T09:40:08;12.47;;;3.73;;
6505;SDS011;3286;49.858;8.768;2024-03-23T09:42:35;9.13;;;2.97;;
6505;SDS011;3286;49.858;8.768;2024-03-23T09:45:02;5.77;;;2.70;;
6505;SDS011;3286;49.858;8.768;2024-03-23T09:47:30;8.53;;;3.03;;
6505;SDS011;3286;49.858;8.768;2024-03-23T09:50:00;6.57;;;2.70;;
6505;SDS011;3286;49.858;8.768;2024-03-23T09:52:29;7.07;;;2.93;;
6505;SDS011;3286;49.858;8.768;2024-03-23T09:54:56;6.53;;;2.63;;
6505;SDS011;3286;49.858;8.768;2024-03-23T09:57:22;5.07;;;2.27;;
6505;SDS011;3286;49.858;8.768;2024-03-23T09:59:49;5.87;;;2.40;;
6505;SDS011;3286;49.858;8.768;2024-03-23T10:02:15;8.90;;;2.33;;
6505;SDS011;3286;49.858;8.768;2024-03-23T10:04:42;4.40;;;2.70;;
6505;SDS011;3286;49.858;8.768;2024-03-23T10:07:13;6.80;;;2.20;;
6505;SDS011;3286;49.858;8.768;2024-03-23T10:09:42;4.23;;;2.30;;
6505;SDS011;3286;49.858;8.768;2024-03-23T10:12:09;7.80;;;2.80;;
6505;SDS011;3286;49.858;8.768;2024-03-23T10:14:37;10.43;;;2.83;;
6505;SDS011;3286;49.858;8.768;2024-03-23T10:17:12;6.73;;;2.23;;
6505;SDS011;3286;49.858;8.768;2024-03-23T10:19:40;6.87;;;3.00;;
6505;SDS011;3286;49.858;8.768;2024-03-23T10:22:08;7.37;;;3.23;;
6505;SDS011;3286;49.858;8.768;2024-03-23T10:24:36;8.10;;;2.47;;
6505;SDS011;3286;49.858;8.768;2024-03-23T10:27:02;6.03;;;2.80;;
6505;SDS011;3286;49.858;8.768;2024-03-23T10:29:29;5.80;;;2.40;;
6505;SDS011;3286;49.858;8.768;2024-03-23T10:31:58;3.37;;;2.13;;
6505;SDS011;3286;49.858;8.768;2024-03-23T10:34:34;3.63;;;1.93;;
6505;SDS011;3286;49.858;8.768;2024-03-23T10:37:01;6.30;;;2.43;;
6505;SDS011;3286;49.858;8.768;2024-03-23T10:39:30;6.67;;;2.20;;
6505;SDS011;3286;49.858;8.768;2024-03-23T10:41:59;11.80;;;3.97;;
6505;SDS011;3286;49.858;8.768;2024-03-23T10:44:28;3.77;;;2.10;;
6505;SDS011;3286;49.858;8.768;2024-03-23T10:46:56;7.40;;;2.40;;
6505;SDS011;3286;49.858;8.768;2024-03-23T10:49:25;6.77;;;1.93;;
6505;SDS011;3286;49.858;8.768;2024-03-23T10:51:53;6.13;;;1.90;;
6505;SDS011;3286;49.858;8.768;2024-03-23T10:54:20;6.60;;;2.00;;
6505;SDS011;3286;49.858;8.768;2024-03-23T10:56:47;6.43;;;1.60;;
6505;SDS011;3286;49.858;8.768;2024-03-23T10:59:18;6.10;;;1.40;;
6505;SDS011;3286;49.858;8.768;2024-03-23T11:01:54;4.63;;;1.93;;
6505;SDS011;3286;49.858;8.768;2024-03-23T11:04:34;3.73;;;1.40;;
6505;SDS011;3286;49.858;8.768;2024-03-23T11:07:01;3.67;;;1.40;;
6505;SDS011;3286;49.858;8.768;2024-03-23T11:09:38;3.00;;;1.10;;
6505;SDS011;3286;49.858;8.768;2024-03-23T11:12:10;1.47;;;0.77;;
6505;SDS011;3286;49.858;8.768;2024-03-23T11:14:52;7.77;;;1.47;;
6505;SDS011;3286;49.858;8.768;2024-03-23T11:17:19;2.43;;;1.40;;
6505;SDS011;3286;49.858;8.768;2024-03-23T11:19:52;1.37;;;0.90;;
6505;SDS011;3286;49.858;8.768;2024-03-23T11:25:15;0.67;;;0.67;;
6505;SDS011;3286;49.858;8.768;2024-03-23T11:27:43;1.90;;;1.40;;
6505;SDS011;3286;49.858;8.768;2024-03-23T11:30:15;3.50;;;1.47;;
6505;SDS011;3286;49.858;8.768;2024-03-23T11:32:42;1.73;;;1.20;;
6505;SDS011;3286;49.858;8.768;2024-03-23T11:35:10;1.87;;;1.30;;
6505;SDS011;3286;49.858;8.768;2024-03-23T11:37:36;3.37;;;1.23;;
6505;SDS011;3286;49.858;8.768;2024-03-23T11:40:16;4.13;;;1.43;;
6505;SDS011;3286;49.858;8.768;2024-03-23T11:42:42;2.80;;;1.37;;
6505;SDS011;3286;49.858;8.768;2024-03-23T11:45:10;5.63;;;1.50;;
6505;SDS011;3286;49.858;8.768;2024-03-23T11:47:37;4.07;;;1.60;;
6505;SDS011;3286;49.858;8.768;2024-03-23T11:50:04;4.53;;;1.50;;
6505;SDS011;3286;49.858;8.768;2024-03-23T11:52:30;2.17;;;1.17;;
6505;SDS011;3286;49.858;8.768;2024-03-23T11:55:03;3.23;;;1.37;;
6505;SDS011;3286;49.858;8.768;2024-03-23T11:57:29;2.87;;;1.30;;
6505;SDS011;3286;49.858;8.768;2024-03-23T11:59:56;2.07;;;1.30;;
6505;SDS011;3286;49.858;8.768;2024-03-23T12:02:22;2.10;;;1.00;;
6505;SDS011;3286;49.858;8.768;2024-03-23T12:04:50;3.53;;;1.40;;
6505;SDS011;3286;49.858;8.768;2024-03-23T12:07:16;1.27;;;1.00;;
6505;SDS011;3286;49.858;8.768;2024-03-23T12:09:44;2.27;;;0.90;;
6505;SDS011;3286;49.858;8.768;2024-03-23T12:12:13;0.83;;;0.77;;
6505;SDS011;3286;49.858;8.768;2024-03-23T12:14:42;5.27;;;1.10;;
6505;SDS011;3286;49.858;8.768;2024-03-23T12:17:09;1.17;;;1.00;;
6505;SDS011;3286;49.858;8.768;2024-03-23T12:19:36;1.57;;;1.10;;
6505;SDS011;3286;49.858;8.768;2024-03-23T12:22:04;1.67;;;1.17;;
6505;SDS011;3286;49.858;8.768;2024-03-23T12:24:32;5.40;;;1.80;;
6505;SDS011;3286;49.858;8.768;2024-03-23T12:26:59;3.03;;;1.27;;
6505;SDS011;3286;49.858;8.768;2024-03-23T12:29:28;2.43;;;1.10;;
6505;SDS011;3286;49.858;8.768;2024-03-23T12:31:54;2.73;;;1.33;;
6505;SDS011;3286;49.858;8.768;2024-03-23T12:34:22;2.07;;;1.33;;
6505;SDS011;3286;49.858;8.768;2024-03-23T12:36:47;3.33;;;1.20;;
6505;SDS011;3286;49.858;8.768;2024-03-23T12:39:16;2.07;;;1.13;;
6505;SDS011;3286;49.858;8.768;2024-03-23T12:41:41;2.13;;;1.40;;
6505;SDS011;3286;49.858;8.768;2024-03-23T12:44:08;2.77;;;1.40;;
6505;SDS011;3286;49.858;8.768;2024-03-23T12:46:36;3.43;;;1.43;;
6505;SDS011;3286;49.858;8.768;2024-03-23T12:49:03;2.70;;;1.13;;
6505;SDS011;3286;49.858;8.768;2024-03-23T12:51:29;3.33;;;1.10;;
6505;SDS011;3286;49.858;8.768;2024-03-23T12:53:56;5.00;;;1.80;;
6505;SDS011;3286;49.858;8.768;2024-03-23T12:56:23;2.63;;;1.30;;
6505;SDS011;3286;49.858;8.768;2024-03-23T12:58:50;3.43;;;1.43;;
6505;SDS011;3286;49.858;8.768;2024-03-23T13:01:16;2.67;;;1.30;;
6505;SDS011;3286;49.858;8.768;2024-03-23T13:03:45;4.43;;;1.87;;
6505;SDS011;3286;49.858;8.768;2024-03-23T13:06:11;3.80;;;1.70;;
6505;SDS011;3286;49.858;8.768;2024-03-23T13:08:38;2.20;;;1.60;;
6505;SDS011;3286;49.858;8.768;2024-03-23T13:11:05;3.10;;;1.93;;
6505;SDS011;3286;49.858;8.768;2024-03-23T13:13:35;3.33;;;1.43;;
6505;SDS011;3286;49.858;8.768;2024-03-23T13:16:01;3.00;;;1.37;;
6505;SDS011;3286;49.858;8.768;2024-03-23T13:18:28;4.80;;;1.30;;
6505;SDS011;3286;49.858;8.768;2024-03-23T13:20:54;2.50;;;1.30;;
6505;SDS011;3286;49.858;8.768;2024-03-23T13:23:20;2.40;;;1.40;;
6505;SDS011;3286;49.858;8.768;2024-03-23T13:25:49;4.73;;;1.60;;
6505;SDS011;3286;49.858;8.768;2024-03-23T13:28:18;4.30;;;1.70;;
6505;SDS011;3286;49.858;8.768;2024-03-23T13:30:50;2.30;;;1.47;;
6505;SDS011;3286;49.858;8.768;2024-03-23T13:33:18;3.23;;;1.23;;
6505;SDS011;3286;49.858;8.768;2024-03-23T13:35:50;2.73;;;1.10;;
6505;SDS011;3286;49.858;8.768;2024-03-23T13:38:17;1.73;;;1.13;;
6505;SDS011;3286;49.858;8.768;2024-03-23T13:40:50;2.67;;;1.80;;
6505;SDS011;3286;49.858;8.768;2024-03-23T13:43:17;2.37;;;1.27;;
6505;SDS011;3286;49.858;8.768;2024-03-23T13:45:43;3.33;;;1.40;;
6505;SDS011;3286;49.858;8.768;2024-03-23T13:48:12;3.20;;;1.50;;
6505;SDS011;3286;49.858;8.768;2024-03-23T13:50:38;5.53;;;1.60;;
6505;SDS011;3286;49.858;8.768;2024-03-23T13:53:04;2.70;;;1.70;;
6505;SDS011;3286;49.858;8.768;2024-03-23T13:55:31;1.80;;;1.20;;
6505;SDS011;3286;49.858;8.768;2024-03-23T13:57:58;5.13;;;2.00;;
6505;SDS011;3286;49.858;8.768;2024-03-23T14:00:23;4.70;;;2.10;;
6505;SDS011;3286;49.858;8.768;2024-03-23T14:02:50;2.33;;;1.73;;
6505;SDS011;3286;49.858;8.768;2024-03-23T14:05:17;3.20;;;1.23;;
6505;SDS011;3286;49.858;8.768;2024-03-23T14:07:44;3.00;;;1.37;;
6505;SDS011;3286;49.858;8.768;2024-03-23T14:10:10;7.90;;;2.07;;
6505;SDS011;3286;49.858;8.768;2024-03-23T14:12:37;6.17;;;1.60;;
6505;SDS011;3286;49.858;8.768;2024-03-23T14:15:04;3.53;;;1.53;;
6505;SDS011;3286;49.858;8.768;2024-03-23T14:17:32;2.53;;;1.30;;
6505;SDS011;3286;49.858;8.768;2024-03-23T14:19:57;1.80;;;1.27;;
6505;SDS011;3286;49.858;8.768;2024-03-23T14:22:28;3.10;;;1.27;;
6505;SDS011;3286;49.858;8.768;2024-03-23T14:24:54;4.37;;;1.30;;
6505;SDS011;3286;49.858;8.768;2024-03-23T14:27:21;2.70;;;1.07;;
6505;SDS011;3286;49.858;8.768;2024-03-23T14:29:46;4.87;;;1.47;;
6505;SDS011;3286;49.858;8.768;2024-03-23T14:32:14;1.70;;;1.00;;
6505;SDS011;3286;49.858;8.768;2024-03-23T14:34:40;3.27;;;1.00;;
6505;SDS011;3286;49.858;8.768;2024-03-23T14:37:06;1.03;;;0.70;;
6505;SDS011;3286;49.858;8.768;2024-03-23T14:39:34;1.10;;;0.80;;
6505;SDS011;3286;49.858;8.768;2024-03-23T14:42:00;1.90;;;1.10;;
6505;SDS011;3286;49.858;8.768;2024-03-23T14:44:27;1.73;;;0.67;;
6505;SDS011;3286;49.858;8.768;2024-03-23T14:46:54;7.37;;;2.67;;
6505;SDS011;3286;49.858;8.768;2024-03-23T14:49:20;3.67;;;1.10;;
6505;SDS011;3286;49.858;8.768;2024-03-23T14:51:47;1.00;;;0.80;;
6505;SDS011;3286;49.858;8.768;2024-03-23T14:54:13;7.57;;;2.13;;
6505;SDS011;3286;49.858;8.768;2024-03-23T14:56:41;1.30;;;1.00;;
6505;SDS011;3286;49.858;8.768;2024-03-23T14:59:08;2.83;;;1.00;;
6505;SDS011;3286;49.858;8.768;2024-03-23T15:01:35;3.13;;;1.00;;
6505;SDS011;3286;49.858;8.768;2024-03-23T15:04:00;4.83;;;1.10;;
6505;SDS011;3286;49.858;8.768;2024-03-23T15:06:29;1.13;;;0.90;;
6505;SDS011;3286;49.858;8.768;2024-03-23T15:08:54;3.40;;;0.80;;
6505;SDS011;3286;49.858;8.768;2024-03-23T15:11:21;0.83;;;0.53;;
6505;SDS011;3286;49.858;8.768;2024-03-23T15:13:49;3.80;;;1.27;;
6505;SDS011;3286;49.858;8.768;2024-03-23T15:16:16;2.00;;;0.80;;
6505;SDS011;3286;49.858;8.768;2024-03-23T15:18:45;0.70;;;0.70;;
6505;SDS011;3286;49.858;8.768;2024-03-23T15:21:11;1.10;;;0.60;;
6505;SDS011;3286;49.858;8.768;2024-03-23T15:23:39;2.33;;;0.73;;
6505;SDS011;3286;49.858;8.768;2024-03-23T15:26:07;6.07;;;1.73;;
6505;SDS011;3286;49.858;8.768;2024-03-23T15:28:33;0.50;;;0.50;;
6505;SDS011;3286;49.858;8.768;2024-03-23T15:31:08;1.40;;;0.90;;
6505;SDS011;3286;49.858;8.768;2024-03-23T15:33:34;4.50;;;0.60;;
6505;SDS011;3286;49.858;8.768;2024-03-23T15:36:01;2.20;;;1.07;;
6505;SDS011;3286;49.858;8.768;2024-03-23T15:38:28;1.67;;;0.90;;
6505;SDS011;3286;49.858;8.768;2024-03-23T15:40:55;1.97;;;0.80;;
6505;SDS011;3286;49.858;8.768;2024-03-23T15:43:21;1.70;;;0.77;;
6505;SDS011;3286;49.858;8.768;2024-03-23T15:45:53;3.80;;;0.90;;
6505;SDS011;3286;49.858;8.768;2024-03-23T15:48:21;1.63;;;0.70;;
6505;SDS011;3286;49.858;8.768;2024-03-23T15:50:51;0.90;;;0.90;;
6505;SDS011;3286;49.858;8.768;2024-03-23T15:53:18;1.27;;;0.73;;
6505;SDS011;3286;49.858;8.768;2024-03-23T15:55:45;2.73;;;0.70;;
6505;SDS011;3286;49.858;8.768;2024-03-23T15:58:11;8.33;;;1.40;;
6505;SDS011;3286;49.858;8.768;2024-03-23T16:00:37;1.83;;;0.70;;
6505;SDS011;3286;49.858;8.768;2024-03-23T16:03:05;1.13;;;0.60;;
6505;SDS011;3286;49.858;8.768;2024-03-23T16:05:33;2.47;;;0.70;;
6505;SDS011;3286;49.858;8.768;2024-03-23T16:07:59;1.50;;;0.60;;
6505;SDS011;3286;49.858;8.768;2024-03-23T16:10:26;0.53;;;0.53;;
6505;SDS011;3286;49.858;8.768;2024-03-23T16:12:52;0.77;;;0.60;;